Kuttawa, Kentucky
Current Conditions -  °F | °C
As of 9:55 AM on Monday 24 Nov 2014 (Local Time) from K5M9 Reporting Station
Overcast Overcast  
Wind Chill: 36°   Ceiling: 2700
Heat Index: 43°   Visibility: 10mi
Dew Point: 35°   Wind: 15mph
Humidity: 72%   Direction: 250°WSW
Pressure: 29.72"   Gusts: 23mph
Location:  37.06°N, 88.13°W
Report Text: K5M9 241555Z AUTO 25013G20KT 10SM OVC027 06/02 A2972 RMK AO2 T00630015
Loading
Personal Weather Stations






























Interactive Weather Map New forecast layout! Learn more

10-Day Weather Forecast

Advertisements
Track Severe Weather on mobile